MUVR/VRA METAR and TAF weather

Enter ICAO airport designator
Station Type Date Time Source
MUVR METAR 2019/08/22 14:50 UTC NOAA

MUVR 221450Z VRB05KT 9000 SCT020 30/24 Q1017


Station Type Date Time Source
MUVR Decoded METAR 2019/08/22 14:50 UTC NOAA

Station name not available
Aug 22, 2019 - 10:50 AM EDT / 2019.08.22 1450 UTC
Wind: Variable at 6 MPH (5 KT):0
Visibility: 5 mile(s):0
Sky conditions: partly cloudy
Temperature: 86 F (30 C)
Heat index: 95.0 F (35.0 C):1
Dew Point: 75 F (24 C)
Relative Humidity: 70%
Pressure (altimeter): 30.03 in. Hg (1017 hPa)
ob: MUVR 221450Z VRB05KT 9000 SCT020 30/24 Q1017
cycle: 15

Station Type Date Time Source
MUVR TAF 2019/08/22 12:03 UTC NOAA

TAF MUVR 221100Z 2212/2312 VRB03KT 9000 FEW020

Example: see airport list